sensor_id;sensor_type;location;lat;lon;timestamp;temperature;humidity
62154;DHT22;48140;45.486;9.226;2022-12-29T00:00:43;9.60;99.90
62154;DHT22;48140;45.486;9.226;2022-12-29T00:10:15;9.50;99.90
62154;DHT22;48140;45.486;9.226;2022-12-29T00:12:44;9.60;99.90
62154;DHT22;48140;45.486;9.226;2022-12-29T01:25:31;9.60;99.90
62154;DHT22;48140;45.486;9.226;2022-12-29T03:51:17;9.00;99.90
62154;DHT22;48140;45.486;9.226;2022-12-29T05:05:06;9.00;99.90
62154;DHT22;48140;45.486;9.226;2022-12-29T07:10:30;9.40;99.90
62154;DHT22;48140;45.486;9.226;2022-12-29T07:59:42;9.50;99.90
62154;DHT22;48140;45.486;9.226;2022-12-29T08:02:11;9.60;99.90
62154;DHT22;48140;45.486;9.226;2022-12-29T08:04:40;9.60;99.90
62154;DHT22;48140;45.486;9.226;2022-12-29T08:07:06;9.60;99.90
62154;DHT22;48140;45.486;9.226;2022-12-29T08:09:31;9.50;99.90
62154;DHT22;48140;45.486;9.226;2022-12-29T08:12:00;9.60;99.90
62154;DHT22;48140;45.486;9.226;2022-12-29T08:14:26;9.60;99.90
62154;DHT22;48140;45.486;9.226;2022-12-29T08:16:57;9.70;99.90
62154;DHT22;48140;45.486;9.226;2022-12-29T08:19:26;9.60;99.90
62154;DHT22;48140;45.486;9.226;2022-12-29T08:21:53;9.60;99.90
62154;DHT22;48140;45.486;9.226;2022-12-29T08:24:18;9.60;99.90
62154;DHT22;48140;45.486;9.226;2022-12-29T08:26:44;9.50;99.90
62154;DHT22;48140;45.486;9.226;2022-12-29T08:29:10;9.50;99.90
62154;DHT22;48140;45.486;9.226;2022-12-29T08:31:36;9.50;99.90
62154;DHT22;48140;45.486;9.226;2022-12-29T08:34:03;9.50;99.90
62154;DHT22;48140;45.486;9.226;2022-12-29T08:36:30;9.50;99.90
62154;DHT22;48140;45.486;9.226;2022-12-29T08:38:58;9.50;99.90
62154;DHT22;48140;45.486;9.226;2022-12-29T08:41:24;9.50;99.90
62154;DHT22;48140;45.486;9.226;2022-12-29T08:43:50;9.50;99.90
62154;DHT22;48140;45.486;9.226;2022-12-29T08:46:16;9.60;99.90
62154;DHT22;48140;45.486;9.226;2022-12-29T08:48:42;9.60;99.90
62154;DHT22;48140;45.486;9.226;2022-12-29T08:51:08;9.60;99.90
62154;DHT22;48140;45.486;9.226;2022-12-29T08:53:34;9.60;99.90
62154;DHT22;48140;45.486;9.226;2022-12-29T08:56:01;9.70;99.90
62154;DHT22;48140;45.486;9.226;2022-12-29T08:58:30;9.70;99.90
62154;DHT22;48140;45.486;9.226;2022-12-29T09:01:03;9.70;99.90
62154;DHT22;48140;45.486;9.226;2022-12-29T09:03:29;9.80;99.90
62154;DHT22;48140;45.486;9.226;2022-12-29T09:05:55;9.90;99.90
62154;DHT22;48140;45.486;9.226;2022-12-29T09:08:21;9.90;99.90
62154;DHT22;48140;45.486;9.226;2022-12-29T09:10:50;9.90;99.90
62154;DHT22;48140;45.486;9.226;2022-12-29T09:13:16;10.00;99.90
62154;DHT22;48140;45.486;9.226;2022-12-29T09:15:42;10.20;99.90
62154;DHT22;48140;45.486;9.226;2022-12-29T09:18:09;10.20;99.90
62154;DHT22;48140;45.486;9.226;2022-12-29T09:20:35;10.20;99.90
62154;DHT22;48140;45.486;9.226;2022-12-29T09:23:04;10.10;99.90
62154;DHT22;48140;45.486;9.226;2022-12-29T09:25:31;10.00;99.90
62154;DHT22;48140;45.486;9.226;2022-12-29T09:27:57;10.00;99.90
62154;DHT22;48140;45.486;9.226;2022-12-29T09:30:23;10.10;99.90
62154;DHT22;48140;45.486;9.226;2022-12-29T09:32:49;10.10;99.90
62154;DHT22;48140;45.486;9.226;2022-12-29T09:35:18;10.10;99.90
62154;DHT22;48140;45.486;9.226;2022-12-29T09:37:43;10.10;99.90
62154;DHT22;48140;45.486;9.226;2022-12-29T09:40:30;10.00;99.90
62154;DHT22;48140;45.486;9.226;2022-12-29T09:48:40;10.00;99.90
62154;DHT22;48140;45.486;9.226;2022-12-29T09:51:21;10.00;99.90
62154;DHT22;48140;45.486;9.226;2022-12-29T09:54:01;10.10;99.90
62154;DHT22;48140;45.486;9.226;2022-12-29T09:56:28;10.10;99.90
62154;DHT22;48140;45.486;9.226;2022-12-29T09:59:08;10.10;99.90
62154;DHT22;48140;45.486;9.226;2022-12-29T10:01:38;10.20;99.90
62154;DHT22;48140;45.486;9.226;2022-12-29T10:04:07;10.20;99.90
62154;DHT22;48140;45.486;9.226;2022-12-29T10:06:40;10.30;99.90
62154;DHT22;48140;45.486;9.226;2022-12-29T10:09:32;10.40;99.90
62154;DHT22;48140;45.486;9.226;2022-12-29T10:12:06;10.40;99.90
62154;DHT22;48140;45.486;9.226;2022-12-29T10:17:22;10.60;99.90
62154;DHT22;48140;45.486;9.226;2022-12-29T10:25:25;10.80;99.90
62154;DHT22;48140;45.486;9.226;2022-12-29T10:28:00;10.90;99.90
62154;DHT22;48140;45.486;9.226;2022-12-29T10:30:39;11.10;99.90
62154;DHT22;48140;45.486;9.226;2022-12-29T10:36:34;11.00;99.90
62154;DHT22;48140;45.486;9.226;2022-12-29T10:42:47;10.90;99.90
62154;DHT22;48140;45.486;9.226;2022-12-29T10:46:18;10.90;99.90
62154;DHT22;48140;45.486;9.226;2022-12-29T10:49:27;10.80;99.90
62154;DHT22;48140;45.486;9.226;2022-12-29T10:52:18;10.80;99.90
62154;DHT22;48140;45.486;9.226;2022-12-29T11:00:23;10.70;99.90
62154;DHT22;48140;45.486;9.226;2022-12-29T11:08:26;10.70;99.90
62154;DHT22;48140;45.486;9.226;2022-12-29T11:11:04;10.80;99.90
62154;DHT22;48140;45.486;9.226;2022-12-29T11:16:33;10.80;99.90
62154;DHT22;48140;45.486;9.226;2022-12-29T11:19:00;10.90;99.90
62154;DHT22;48140;45.486;9.226;2022-12-29T11:21:30;10.80;99.90
62154;DHT22;48140;45.486;9.226;2022-12-29T11:24:04;10.90;99.90
62154;DHT22;48140;45.486;9.226;2022-12-29T11:29:42;10.90;99.90
62154;DHT22;48140;45.486;9.226;2022-12-29T11:32:17;10.90;99.90
62154;DHT22;48140;45.486;9.226;2022-12-29T11:34:44;10.80;99.90
62154;DHT22;48140;45.486;9.226;2022-12-29T11:37:20;10.80;99.90
62154;DHT22;48140;45.486;9.226;2022-12-29T11:48:34;11.10;99.90
62154;DHT22;48140;45.486;9.226;2022-12-29T11:59:50;11.20;99.90
62154;DHT22;48140;45.486;9.226;2022-12-29T12:02:42;11.30;99.90
62154;DHT22;48140;45.486;9.226;2022-12-29T12:05:35;11.20;99.90
62154;DHT22;48140;45.486;9.226;2022-12-29T12:11:10;11.00;99.90
62154;DHT22;48140;45.486;9.226;2022-12-29T13:06:48;11.10;99.90
62154;DHT22;48140;45.486;9.226;2022-12-29T13:09:37;11.10;99.90
62154;DHT22;48140;45.486;9.226;2022-12-29T13:15:00;10.90;99.90
62154;DHT22;48140;45.486;9.226;2022-12-29T13:17:53;11.00;99.90
62154;DHT22;48140;45.486;9.226;2022-12-29T13:20:28;11.00;99.90
62154;DHT22;48140;45.486;9.226;2022-12-29T13:39:04;11.20;99.90
62154;DHT22;48140;45.486;9.226;2022-12-29T13:41:44;11.30;99.90
62154;DHT22;48140;45.486;9.226;2022-12-29T13:44:22;11.10;99.90
62154;DHT22;48140;45.486;9.226;2022-12-29T13:46:49;11.20;99.90
62154;DHT22;48140;45.486;9.226;2022-12-29T13:49:20;11.40;99.90
62154;DHT22;48140;45.486;9.226;2022-12-29T13:51:59;11.40;99.90
62154;DHT22;48140;45.486;9.226;2022-12-29T13:54:57;11.50;99.90
62154;DHT22;48140;45.486;9.226;2022-12-29T13:57:45;11.60;99.90
62154;DHT22;48140;45.486;9.226;2022-12-29T14:00:19;11.70;99.90
62154;DHT22;48140;45.486;9.226;2022-12-29T14:07:48;11.80;99.90
62154;DHT22;48140;45.486;9.226;2022-12-29T14:10:36;11.70;99.90
62154;DHT22;48140;45.486;9.226;2022-12-29T14:13:21;11.60;99.90
62154;DHT22;48140;45.486;9.226;2022-12-29T14:15:54;11.60;99.90
62154;DHT22;48140;45.486;9.226;2022-12-29T14:18:25;11.40;99.90
62154;DHT22;48140;45.486;9.226;2022-12-29T14:21:07;11.30;99.90
62154;DHT22;48140;45.486;9.226;2022-12-29T14:23:45;11.20;99.90
62154;DHT22;48140;45.486;9.226;2022-12-29T14:29:48;10.90;99.90
62154;DHT22;48140;45.486;9.226;2022-12-29T15:19:26;10.20;99.90
62154;DHT22;48140;45.486;9.226;2022-12-29T15:21:53;10.30;99.90
62154;DHT22;48140;45.486;9.226;2022-12-29T15:24:22;10.30;99.90
62154;DHT22;48140;45.486;9.226;2022-12-29T15:26:53;10.40;99.90
62154;DHT22;48140;45.486;9.226;2022-12-29T15:29:39;10.40;99.90
62154;DHT22;48140;45.486;9.226;2022-12-29T15:32:16;10.30;99.90
62154;DHT22;48140;45.486;9.226;2022-12-29T15:34:44;10.30;99.90
62154;DHT22;48140;45.486;9.226;2022-12-29T15:37:34;10.20;99.90
62154;DHT22;48140;45.486;9.226;2022-12-29T15:40:04;10.30;99.90
62154;DHT22;48140;45.486;9.226;2022-12-29T15:45:11;10.20;99.90
62154;DHT22;48140;45.486;9.226;2022-12-29T15:47:39;10.30;99.90
62154;DHT22;48140;45.486;9.226;2022-12-29T15:53:10;10.30;99.90
62154;DHT22;48140;45.486;9.226;2022-12-29T15:55:39;10.30;99.90
62154;DHT22;48140;45.486;9.226;2022-12-29T15:58:23;10.20;99.90
62154;DHT22;48140;45.486;9.226;2022-12-29T16:01:03;10.20;99.90
62154;DHT22;48140;45.486;9.226;2022-12-29T16:11:36;10.10;99.90
62154;DHT22;48140;45.486;9.226;2022-12-29T16:14:20;10.20;99.90
62154;DHT22;48140;45.486;9.226;2022-12-29T16:16:48;10.10;99.90
62154;DHT22;48140;45.486;9.226;2022-12-29T16:19:24;10.10;99.90
62154;DHT22;48140;45.486;9.226;2022-12-29T16:21:54;10.10;99.90
62154;DHT22;48140;45.486;9.226;2022-12-29T16:24:25;10.10;99.90
62154;DHT22;48140;45.486;9.226;2022-12-29T16:27:06;10.10;99.90
62154;DHT22;48140;45.486;9.226;2022-12-29T16:29:33;10.10;99.90
62154;DHT22;48140;45.486;9.226;2022-12-29T16:32:01;10.10;99.90
62154;DHT22;48140;45.486;9.226;2022-12-29T16:37:30;10.10;99.90
62154;DHT22;48140;45.486;9.226;2022-12-29T16:50:37;10.00;99.90
62154;DHT22;48140;45.486;9.226;2022-12-29T16:53:05;10.00;99.90
62154;DHT22;48140;45.486;9.226;2022-12-29T16:55:32;9.90;99.90
62154;DHT22;48140;45.486;9.226;2022-12-29T16:57:59;9.90;99.90
62154;DHT22;48140;45.486;9.226;2022-12-29T17:00:28;9.90;99.90
62154;DHT22;48140;45.486;9.226;2022-12-29T17:02:57;10.00;99.90
62154;DHT22;48140;45.486;9.226;2022-12-29T17:05:24;9.80;99.90
62154;DHT22;48140;45.486;9.226;2022-12-29T17:07:50;9.80;99.90
62154;DHT22;48140;45.486;9.226;2022-12-29T17:10:20;9.80;99.90
62154;DHT22;48140;45.486;9.226;2022-12-29T17:13:07;9.70;99.90
62154;DHT22;48140;45.486;9.226;2022-12-29T17:15:33;9.70;99.90
62154;DHT22;48140;45.486;9.226;2022-12-29T17:18:00;9.70;99.90
62154;DHT22;48140;45.486;9.226;2022-12-29T17:20:30;9.60;99.90
62154;DHT22;48140;45.486;9.226;2022-12-29T17:22:58;9.70;99.90
62154;DHT22;48140;45.486;9.226;2022-12-29T17:25:36;9.60;99.90
62154;DHT22;48140;45.486;9.226;2022-12-29T17:28:27;9.70;99.90
62154;DHT22;48140;45.486;9.226;2022-12-29T17:30:58;9.70;99.90
62154;DHT22;48140;45.486;9.226;2022-12-29T17:33:25;9.60;99.90
62154;DHT22;48140;45.486;9.226;2022-12-29T17:35:51;9.70;99.90
62154;DHT22;48140;45.486;9.226;2022-12-29T17:38:20;9.70;99.90
62154;DHT22;48140;45.486;9.226;2022-12-29T18:00:59;9.70;99.90
62154;DHT22;48140;45.486;9.226;2022-12-29T18:03:37;9.70;99.90
62154;DHT22;48140;45.486;9.226;2022-12-29T18:06:04;9.70;99.90
62154;DHT22;48140;45.486;9.226;2022-12-29T18:08:38;9.70;99.90
62154;DHT22;48140;45.486;9.226;2022-12-29T18:11:21;9.70;99.90
62154;DHT22;48140;45.486;9.226;2022-12-29T18:13:56;9.70;99.90
62154;DHT22;48140;45.486;9.226;2022-12-29T18:16:33;9.70;99.90
62154;DHT22;48140;45.486;9.226;2022-12-29T18:19:02;9.70;99.90
62154;DHT22;48140;45.486;9.226;2022-12-29T18:21:52;9.60;99.90
62154;DHT22;48140;45.486;9.226;2022-12-29T18:24:34;9.70;99.90
62154;DHT22;48140;45.486;9.226;2022-12-29T18:27:17;9.60;99.90
62154;DHT22;48140;45.486;9.226;2022-12-29T18:29:47;9.70;99.90
62154;DHT22;48140;45.486;9.226;2022-12-29T18:32:20;9.70;99.90
62154;DHT22;48140;45.486;9.226;2022-12-29T18:34:46;9.70;99.90
62154;DHT22;48140;45.486;9.226;2022-12-29T18:37:13;9.70;99.90
62154;DHT22;48140;45.486;9.226;2022-12-29T18:39:41;9.70;99.90
62154;DHT22;48140;45.486;9.226;2022-12-29T18:42:08;9.60;99.90
62154;DHT22;48140;45.486;9.226;2022-12-29T18:44:34;9.50;99.90
62154;DHT22;48140;45.486;9.226;2022-12-29T18:49:36;9.50;99.90
62154;DHT22;48140;45.486;9.226;2022-12-29T18:52:02;9.50;99.90
62154;DHT22;48140;45.486;9.226;2022-12-29T18:54:31;9.50;99.90
62154;DHT22;48140;45.486;9.226;2022-12-29T18:56:57;9.50;99.90
62154;DHT22;48140;45.486;9.226;2022-12-29T18:59:23;9.60;99.90
62154;DHT22;48140;45.486;9.226;2022-12-29T19:01:52;9.70;99.90
62154;DHT22;48140;45.486;9.226;2022-12-29T19:04:19;9.60;99.90
62154;DHT22;48140;45.486;9.226;2022-12-29T19:06:48;9.60;99.90
62154;DHT22;48140;45.486;9.226;2022-12-29T19:09:14;9.60;99.90
62154;DHT22;48140;45.486;9.226;2022-12-29T19:11:40;9.60;99.90
62154;DHT22;48140;45.486;9.226;2022-12-29T19:14:13;9.60;99.90
62154;DHT22;48140;45.486;9.226;2022-12-29T19:19:24;9.60;99.90
62154;DHT22;48140;45.486;9.226;2022-12-29T19:24:26;9.60;99.90
62154;DHT22;48140;45.486;9.226;2022-12-29T19:26:51;9.70;99.90
62154;DHT22;48140;45.486;9.226;2022-12-29T19:31:54;9.70;99.90
62154;DHT22;48140;45.486;9.226;2022-12-29T19:34:21;9.60;99.90
62154;DHT22;48140;45.486;9.226;2022-12-29T19:47:08;9.60;99.90
62154;DHT22;48140;45.486;9.226;2022-12-29T20:05:15;9.60;99.90
62154;DHT22;48140;45.486;9.226;2022-12-29T20:08:05;9.60;99.90
62154;DHT22;48140;45.486;9.226;2022-12-29T20:10:42;9.60;99.90
62154;DHT22;48140;45.486;9.226;2022-12-29T20:13:08;9.60;99.90
62154;DHT22;48140;45.486;9.226;2022-12-29T20:15:55;9.60;99.90
62154;DHT22;48140;45.486;9.226;2022-12-29T20:18:31;9.60;99.90
62154;DHT22;48140;45.486;9.226;2022-12-29T20:21:08;9.60;99.90
62154;DHT22;48140;45.486;9.226;2022-12-29T20:26:23;9.70;99.90
62154;DHT22;48140;45.486;9.226;2022-12-29T20:28:53;9.70;99.90
62154;DHT22;48140;45.486;9.226;2022-12-29T20:31:39;9.60;99.90
62154;DHT22;48140;45.486;9.226;2022-12-29T20:34:08;9.70;99.90
62154;DHT22;48140;45.486;9.226;2022-12-29T20:36:38;9.60;99.90
62154;DHT22;48140;45.486;9.226;2022-12-29T20:41:39;9.60;99.90
62154;DHT22;48140;45.486;9.226;2022-12-29T20:44:08;9.50;99.90
62154;DHT22;48140;45.486;9.226;2022-12-29T20:46:35;9.50;99.90
62154;DHT22;48140;45.486;9.226;2022-12-29T20:49:16;9.50;99.90
62154;DHT22;48140;45.486;9.226;2022-12-29T20:51:49;9.40;99.90
62154;DHT22;48140;45.486;9.226;2022-12-29T20:59:26;9.50;99.90
62154;DHT22;48140;45.486;9.226;2022-12-29T21:07:14;9.50;99.90
62154;DHT22;48140;45.486;9.226;2022-12-29T21:09:40;9.50;99.90
62154;DHT22;48140;45.486;9.226;2022-12-29T21:12:06;9.50;99.90
62154;DHT22;48140;45.486;9.226;2022-12-29T21:14:33;9.40;99.90
62154;DHT22;48140;45.486;9.226;2022-12-29T21:16:59;9.40;99.90
62154;DHT22;48140;45.486;9.226;2022-12-29T21:19:24;9.40;99.90
62154;DHT22;48140;45.486;9.226;2022-12-29T21:21:50;9.30;99.90
62154;DHT22;48140;45.486;9.226;2022-12-29T21:24:16;9.40;99.90
62154;DHT22;48140;45.486;9.226;2022-12-29T21:26:44;9.40;99.90
62154;DHT22;48140;45.486;9.226;2022-12-29T21:29:09;9.40;99.90
62154;DHT22;48140;45.486;9.226;2022-12-29T21:31:36;9.40;99.90
62154;DHT22;48140;45.486;9.226;2022-12-29T21:34:03;9.40;99.90
62154;DHT22;48140;45.486;9.226;2022-12-29T21:36:31;9.50;99.90
62154;DHT22;48140;45.486;9.226;2022-12-29T21:38:57;9.50;99.90
62154;DHT22;48140;45.486;9.226;2022-12-29T21:41:24;9.50;99.90
62154;DHT22;48140;45.486;9.226;2022-12-29T21:43:50;9.40;99.90
62154;DHT22;48140;45.486;9.226;2022-12-29T21:46:36;9.40;99.90
62154;DHT22;48140;45.486;9.226;2022-12-29T21:49:03;9.30;99.90
62154;DHT22;48140;45.486;9.226;2022-12-29T21:59:16;9.30;99.90
62154;DHT22;48140;45.486;9.226;2022-12-29T22:02:02;9.30;99.90
62154;DHT22;48140;45.486;9.226;2022-12-29T22:12:33;9.30;99.90
62154;DHT22;48140;45.486;9.226;2022-12-29T22:15:18;9.30;99.90
62154;DHT22;48140;45.486;9.226;2022-12-29T22:17:49;9.30;99.90
62154;DHT22;48140;45.486;9.226;2022-12-29T22:20:17;9.40;99.90
62154;DHT22;48140;45.486;9.226;2022-12-29T22:22:43;9.40;99.90
62154;DHT22;48140;45.486;9.226;2022-12-29T22:25:09;9.40;99.90
62154;DHT22;48140;45.486;9.226;2022-12-29T22:27:38;9.30;99.90
62154;DHT22;48140;45.486;9.226;2022-12-29T22:32:39;9.30;99.90
62154;DHT22;48140;45.486;9.226;2022-12-29T22:35:05;9.30;99.90
62154;DHT22;48140;45.486;9.226;2022-12-29T22:40:07;9.30;99.90
62154;DHT22;48140;45.486;9.226;2022-12-29T22:42:38;9.30;99.90
62154;DHT22;48140;45.486;9.226;2022-12-29T22:45:10;9.30;99.90
62154;DHT22;48140;45.486;9.226;2022-12-29T22:47:36;9.30;99.90
62154;DHT22;48140;45.486;9.226;2022-12-29T22:50:03;9.30;99.90
62154;DHT22;48140;45.486;9.226;2022-12-29T22:52:29;9.20;99.90
62154;DHT22;48140;45.486;9.226;2022-12-29T23:02:41;8.60;99.90
62154;DHT22;48140;45.486;9.226;2022-12-29T23:29:19;9.30;99.90
